sensor_id;sensor_type;location;lat;lon;timestamp;P1;durP1;ratioP1;P2;durP2;ratioP2
3149;SDS011;32503;47.748;8.960;2023-11-22T00:00:57;4.93;;;3.00;;
3149;SDS011;32503;47.748;8.960;2023-11-22T00:03:25;3.03;;;2.83;;
3149;SDS011;32503;47.748;8.960;2023-11-22T00:05:52;5.07;;;4.60;;
3149;SDS011;32503;47.748;8.960;2023-11-22T00:08:19;6.10;;;5.50;;
3149;SDS011;32503;47.748;8.960;2023-11-22T00:10:46;10.53;;;6.10;;
3149;SDS011;32503;47.748;8.960;2023-11-22T00:13:13;10.53;;;6.53;;
3149;SDS011;32503;47.748;8.960;2023-11-22T00:15:40;4.73;;;4.30;;
3149;SDS011;32503;47.748;8.960;2023-11-22T00:18:07;3.80;;;3.50;;
3149;SDS011;32503;47.748;8.960;2023-11-22T00:20:36;3.80;;;3.50;;
3149;SDS011;32503;47.748;8.960;2023-11-22T00:23:03;3.80;;;3.60;;
3149;SDS011;32503;47.748;8.960;2023-11-22T00:25:30;3.10;;;2.90;;
3149;SDS011;32503;47.748;8.960;2023-11-22T00:27:57;3.60;;;3.40;;
3149;SDS011;32503;47.748;8.960;2023-11-22T00:30:24;3.57;;;3.33;;
3149;SDS011;32503;47.748;8.960;2023-11-22T00:32:51;3.70;;;3.30;;
3149;SDS011;32503;47.748;8.960;2023-11-22T00:35:18;2.63;;;2.50;;
3149;SDS011;32503;47.748;8.960;2023-11-22T00:37:47;2.80;;;2.60;;
3149;SDS011;32503;47.748;8.960;2023-11-22T00:40:14;3.57;;;3.33;;
3149;SDS011;32503;47.748;8.960;2023-11-22T00:42:41;3.43;;;3.23;;
3149;SDS011;32503;47.748;8.960;2023-11-22T00:45:08;3.20;;;3.00;;
3149;SDS011;32503;47.748;8.960;2023-11-22T00:47:36;2.50;;;2.40;;
3149;SDS011;32503;47.748;8.960;2023-11-22T00:50:04;2.83;;;2.63;;
3149;SDS011;32503;47.748;8.960;2023-11-22T00:52:32;3.40;;;3.10;;
3149;SDS011;32503;47.748;8.960;2023-11-22T00:55:01;3.10;;;2.90;;
3149;SDS011;32503;47.748;8.960;2023-11-22T00:57:28;2.87;;;2.57;;
3149;SDS011;32503;47.748;8.960;2023-11-22T00:59:55;3.57;;;3.27;;
3149;SDS011;32503;47.748;8.960;2023-11-22T01:02:22;3.80;;;3.43;;
3149;SDS011;32503;47.748;8.960;2023-11-22T01:04:51;3.13;;;2.90;;
3149;SDS011;32503;47.748;8.960;2023-11-22T01:07:18;3.13;;;2.93;;
3149;SDS011;32503;47.748;8.960;2023-11-22T01:09:45;2.70;;;2.50;;
3149;SDS011;32503;47.748;8.960;2023-11-22T01:12:14;3.30;;;3.10;;
3149;SDS011;32503;47.748;8.960;2023-11-22T01:14:41;2.87;;;2.67;;
3149;SDS011;32503;47.748;8.960;2023-11-22T01:17:08;3.77;;;3.47;;
3149;SDS011;32503;47.748;8.960;2023-11-22T01:19:35;3.87;;;3.47;;
3149;SDS011;32503;47.748;8.960;2023-11-22T01:22:02;3.53;;;3.23;;
3149;SDS011;32503;47.748;8.960;2023-11-22T01:24:30;3.00;;;2.80;;
3149;SDS011;32503;47.748;8.960;2023-11-22T01:26:57;2.60;;;2.50;;
3149;SDS011;32503;47.748;8.960;2023-11-22T01:29:25;5.20;;;3.70;;
3149;SDS011;32503;47.748;8.960;2023-11-22T01:31:53;3.00;;;2.87;;
3149;SDS011;32503;47.748;8.960;2023-11-22T01:34:21;2.90;;;2.70;;
3149;SDS011;32503;47.748;8.960;2023-11-22T01:36:49;3.30;;;3.10;;
3149;SDS011;32503;47.748;8.960;2023-11-22T01:39:16;3.30;;;2.90;;
3149;SDS011;32503;47.748;8.960;2023-11-22T01:41:44;2.80;;;2.70;;
3149;SDS011;32503;47.748;8.960;2023-11-22T01:44:11;2.80;;;2.63;;
3149;SDS011;32503;47.748;8.960;2023-11-22T01:46:39;3.47;;;2.80;;
3149;SDS011;32503;47.748;8.960;2023-11-22T01:49:08;3.00;;;2.80;;
3149;SDS011;32503;47.748;8.960;2023-11-22T01:51:36;2.20;;;2.10;;
3149;SDS011;32503;47.748;8.960;2023-11-22T01:54:04;1.93;;;1.83;;
3149;SDS011;32503;47.748;8.960;2023-11-22T01:56:37;2.70;;;2.50;;
3149;SDS011;32503;47.748;8.960;2023-11-22T01:59:05;2.47;;;2.27;;
3149;SDS011;32503;47.748;8.960;2023-11-22T02:01:33;2.73;;;2.53;;
3149;SDS011;32503;47.748;8.960;2023-11-22T02:04:02;2.43;;;2.30;;
3149;SDS011;32503;47.748;8.960;2023-11-22T02:06:30;2.60;;;2.50;;
3149;SDS011;32503;47.748;8.960;2023-11-22T02:08:58;2.73;;;2.53;;
3149;SDS011;32503;47.748;8.960;2023-11-22T02:11:25;2.60;;;2.50;;
3149;SDS011;32503;47.748;8.960;2023-11-22T02:13:52;2.10;;;2.00;;
3149;SDS011;32503;47.748;8.960;2023-11-22T02:16:19;2.20;;;2.10;;
3149;SDS011;32503;47.748;8.960;2023-11-22T02:18:47;2.50;;;2.17;;
3149;SDS011;32503;47.748;8.960;2023-11-22T02:21:17;2.33;;;2.20;;
3149;SDS011;32503;47.748;8.960;2023-11-22T02:23:48;2.50;;;2.40;;
3149;SDS011;32503;47.748;8.960;2023-11-22T02:26:14;2.43;;;2.27;;
3149;SDS011;32503;47.748;8.960;2023-11-22T02:28:43;3.43;;;3.23;;
3149;SDS011;32503;47.748;8.960;2023-11-22T02:31:10;2.50;;;2.30;;
3149;SDS011;32503;47.748;8.960;2023-11-22T02:33:38;2.37;;;2.20;;
3149;SDS011;32503;47.748;8.960;2023-11-22T02:36:05;3.43;;;3.13;;
3149;SDS011;32503;47.748;8.960;2023-11-22T02:38:33;2.53;;;2.43;;
3149;SDS011;32503;47.748;8.960;2023-11-22T02:41:02;2.30;;;2.20;;
3149;SDS011;32503;47.748;8.960;2023-11-22T02:43:29;2.50;;;2.30;;
3149;SDS011;32503;47.748;8.960;2023-11-22T02:45:56;5.37;;;2.03;;
3149;SDS011;32503;47.748;8.960;2023-11-22T02:48:23;2.80;;;2.60;;
3149;SDS011;32503;47.748;8.960;2023-11-22T02:50:50;2.30;;;2.20;;
3149;SDS011;32503;47.748;8.960;2023-11-22T02:53:19;2.50;;;2.30;;
3149;SDS011;32503;47.748;8.960;2023-11-22T02:55:46;3.17;;;2.97;;
3149;SDS011;32503;47.748;8.960;2023-11-22T02:58:15;2.87;;;2.70;;
3149;SDS011;32503;47.748;8.960;2023-11-22T03:00:42;2.40;;;2.20;;
3149;SDS011;32503;47.748;8.960;2023-11-22T03:03:09;3.03;;;2.83;;
3149;SDS011;32503;47.748;8.960;2023-11-22T03:05:37;3.23;;;2.67;;
3149;SDS011;32503;47.748;8.960;2023-11-22T03:08:05;3.20;;;3.00;;
3149;SDS011;32503;47.748;8.960;2023-11-22T03:10:32;3.03;;;2.83;;
3149;SDS011;32503;47.748;8.960;2023-11-22T03:13:00;2.43;;;2.20;;
3149;SDS011;32503;47.748;8.960;2023-11-22T03:15:30;2.80;;;2.40;;
3149;SDS011;32503;47.748;8.960;2023-11-22T03:17:57;2.30;;;2.10;;
3149;SDS011;32503;47.748;8.960;2023-11-22T03:20:26;2.07;;;1.97;;
3149;SDS011;32503;47.748;8.960;2023-11-22T03:22:53;2.30;;;2.20;;
3149;SDS011;32503;47.748;8.960;2023-11-22T03:25:23;2.70;;;2.50;;
3149;SDS011;32503;47.748;8.960;2023-11-22T03:27:50;2.30;;;2.20;;
3149;SDS011;32503;47.748;8.960;2023-11-22T03:30:17;2.70;;;2.50;;
3149;SDS011;32503;47.748;8.960;2023-11-22T03:32:46;2.70;;;2.60;;
3149;SDS011;32503;47.748;8.960;2023-11-22T03:35:14;2.83;;;2.53;;
3149;SDS011;32503;47.748;8.960;2023-11-22T03:37:42;3.70;;;3.10;;
3149;SDS011;32503;47.748;8.960;2023-11-22T03:40:09;3.83;;;3.33;;
3149;SDS011;32503;47.748;8.960;2023-11-22T03:42:38;3.57;;;3.27;;
3149;SDS011;32503;47.748;8.960;2023-11-22T03:45:06;3.47;;;2.93;;
3149;SDS011;32503;47.748;8.960;2023-11-22T03:47:34;3.57;;;3.27;;
3149;SDS011;32503;47.748;8.960;2023-11-22T03:50:04;3.30;;;3.10;;
3149;SDS011;32503;47.748;8.960;2023-11-22T03:52:32;5.87;;;4.07;;
3149;SDS011;32503;47.748;8.960;2023-11-22T03:54:59;3.63;;;3.43;;
3149;SDS011;32503;47.748;8.960;2023-11-22T03:57:27;3.43;;;3.23;;
3149;SDS011;32503;47.748;8.960;2023-11-22T03:59:54;4.80;;;3.30;;
3149;SDS011;32503;47.748;8.960;2023-11-22T04:02:22;4.37;;;3.40;;
3149;SDS011;32503;47.748;8.960;2023-11-22T04:04:49;4.40;;;3.60;;
3149;SDS011;32503;47.748;8.960;2023-11-22T04:07:17;4.87;;;4.40;;
3149;SDS011;32503;47.748;8.960;2023-11-22T04:09:44;5.67;;;2.73;;
3149;SDS011;32503;47.748;8.960;2023-11-22T04:12:11;4.30;;;3.50;;
3149;SDS011;32503;47.748;8.960;2023-11-22T04:14:38;3.40;;;3.10;;
3149;SDS011;32503;47.748;8.960;2023-11-22T04:17:05;4.17;;;3.87;;
3149;SDS011;32503;47.748;8.960;2023-11-22T04:19:32;4.00;;;3.80;;
3149;SDS011;32503;47.748;8.960;2023-11-22T04:21:59;4.07;;;3.67;;
3149;SDS011;32503;47.748;8.960;2023-11-22T04:24:28;4.53;;;3.97;;
3149;SDS011;32503;47.748;8.960;2023-11-22T04:26:55;5.00;;;3.90;;
3149;SDS011;32503;47.748;8.960;2023-11-22T04:29:22;4.23;;;3.90;;
3149;SDS011;32503;47.748;8.960;2023-11-22T04:31:49;4.77;;;4.30;;
3149;SDS011;32503;47.748;8.960;2023-11-22T04:34:16;4.00;;;3.63;;
3149;SDS011;32503;47.748;8.960;2023-11-22T04:36:43;5.00;;;4.60;;
3149;SDS011;32503;47.748;8.960;2023-11-22T04:39:11;4.83;;;4.40;;
3149;SDS011;32503;47.748;8.960;2023-11-22T04:41:40;4.43;;;3.63;;
3149;SDS011;32503;47.748;8.960;2023-11-22T04:44:07;3.90;;;3.60;;
3149;SDS011;32503;47.748;8.960;2023-11-22T04:46:34;4.30;;;3.90;;
3149;SDS011;32503;47.748;8.960;2023-11-22T04:49:01;4.20;;;3.80;;
3149;SDS011;32503;47.748;8.960;2023-11-22T04:51:28;4.07;;;3.73;;
3149;SDS011;32503;47.748;8.960;2023-11-22T04:53:55;4.13;;;3.83;;
3149;SDS011;32503;47.748;8.960;2023-11-22T04:56:22;3.90;;;3.60;;
3149;SDS011;32503;47.748;8.960;2023-11-22T04:58:51;4.40;;;4.00;;
3149;SDS011;32503;47.748;8.960;2023-11-22T05:01:18;3.67;;;3.37;;
3149;SDS011;32503;47.748;8.960;2023-11-22T05:03:45;3.90;;;3.53;;
3149;SDS011;32503;47.748;8.960;2023-11-22T05:06:12;3.07;;;2.83;;
3149;SDS011;32503;47.748;8.960;2023-11-22T05:08:40;3.03;;;2.83;;
3149;SDS011;32503;47.748;8.960;2023-11-22T05:11:07;3.90;;;3.70;;
3149;SDS011;32503;47.748;8.960;2023-11-22T05:13:35;3.20;;;3.00;;
3149;SDS011;32503;47.748;8.960;2023-11-22T05:16:03;3.97;;;3.67;;
3149;SDS011;32503;47.748;8.960;2023-11-22T05:18:31;3.30;;;3.10;;
3149;SDS011;32503;47.748;8.960;2023-11-22T05:20:58;4.00;;;3.70;;
3149;SDS011;32503;47.748;8.960;2023-11-22T05:23:25;4.40;;;4.10;;
3149;SDS011;32503;47.748;8.960;2023-11-22T05:25:52;5.40;;;4.90;;
3149;SDS011;32503;47.748;8.960;2023-11-22T05:28:19;4.60;;;4.20;;
3149;SDS011;32503;47.748;8.960;2023-11-22T05:30:47;4.17;;;3.83;;
3149;SDS011;32503;47.748;8.960;2023-11-22T05:33:17;5.83;;;5.20;;
3149;SDS011;32503;47.748;8.960;2023-11-22T05:35:44;4.57;;;4.17;;
3149;SDS011;32503;47.748;8.960;2023-11-22T05:38:11;3.17;;;2.97;;
3149;SDS011;32503;47.748;8.960;2023-11-22T05:40:38;2.80;;;2.60;;
3149;SDS011;32503;47.748;8.960;2023-11-22T05:43:07;1.83;;;1.73;;
3149;SDS011;32503;47.748;8.960;2023-11-22T05:45:34;1.80;;;1.70;;
3149;SDS011;32503;47.748;8.960;2023-11-22T05:48:02;1.40;;;1.30;;
3149;SDS011;32503;47.748;8.960;2023-11-22T05:50:30;2.00;;;1.33;;
3149;SDS011;32503;47.748;8.960;2023-11-22T05:52:57;1.77;;;1.67;;
3149;SDS011;32503;47.748;8.960;2023-11-22T05:55:25;2.57;;;1.53;;
3149;SDS011;32503;47.748;8.960;2023-11-22T05:57:52;1.80;;;1.70;;
3149;SDS011;32503;47.748;8.960;2023-11-22T06:00:20;1.70;;;1.60;;
3149;SDS011;32503;47.748;8.960;2023-11-22T06:02:47;2.27;;;2.13;;
3149;SDS011;32503;47.748;8.960;2023-11-22T06:05:14;1.50;;;1.37;;
3149;SDS011;32503;47.748;8.960;2023-11-22T06:07:42;1.60;;;1.50;;
3149;SDS011;32503;47.748;8.960;2023-11-22T06:10:10;2.47;;;2.37;;
3149;SDS011;32503;47.748;8.960;2023-11-22T06:12:38;2.83;;;2.70;;
3149;SDS011;32503;47.748;8.960;2023-11-22T06:15:05;3.93;;;2.40;;
3149;SDS011;32503;47.748;8.960;2023-11-22T06:17:34;3.20;;;2.70;;
3149;SDS011;32503;47.748;8.960;2023-11-22T06:20:04;3.53;;;3.00;;
3149;SDS011;32503;47.748;8.960;2023-11-22T06:22:36;2.80;;;2.60;;
3149;SDS011;32503;47.748;8.960;2023-11-22T06:25:07;2.27;;;1.93;;
3149;SDS011;32503;47.748;8.960;2023-11-22T06:27:35;1.57;;;1.47;;
3149;SDS011;32503;47.748;8.960;2023-11-22T06:30:03;3.50;;;1.07;;
3149;SDS011;32503;47.748;8.960;2023-11-22T06:32:32;1.30;;;1.20;;
3149;SDS011;32503;47.748;8.960;2023-11-22T06:35:00;1.10;;;1.00;;
3149;SDS011;32503;47.748;8.960;2023-11-22T06:37:28;1.47;;;1.37;;
3149;SDS011;32503;47.748;8.960;2023-11-22T06:39:55;1.30;;;1.20;;
3149;SDS011;32503;47.748;8.960;2023-11-22T06:42:32;2.10;;;1.97;;
3149;SDS011;32503;47.748;8.960;2023-11-22T06:45:00;2.67;;;2.47;;
3149;SDS011;32503;47.748;8.960;2023-11-22T06:47:27;3.10;;;2.80;;
3149;SDS011;32503;47.748;8.960;2023-11-22T06:49:54;2.53;;;2.43;;
3149;SDS011;32503;47.748;8.960;2023-11-22T06:52:21;2.47;;;2.37;;
3149;SDS011;32503;47.748;8.960;2023-11-22T06:54:48;4.17;;;2.00;;
3149;SDS011;32503;47.748;8.960;2023-11-22T06:57:15;1.90;;;1.80;;
3149;SDS011;32503;47.748;8.960;2023-11-22T06:59:43;1.87;;;1.77;;
3149;SDS011;32503;47.748;8.960;2023-11-22T07:02:10;1.80;;;1.70;;
3149;SDS011;32503;47.748;8.960;2023-11-22T07:04:39;1.33;;;1.23;;
3149;SDS011;32503;47.748;8.960;2023-11-22T07:07:06;1.30;;;1.20;;
3149;SDS011;32503;47.748;8.960;2023-11-22T07:09:36;1.77;;;1.67;;
3149;SDS011;32503;47.748;8.960;2023-11-22T07:12:04;1.50;;;1.40;;
3149;SDS011;32503;47.748;8.960;2023-11-22T07:14:32;4.20;;;1.63;;
3149;SDS011;32503;47.748;8.960;2023-11-22T07:17:01;1.80;;;1.70;;
3149;SDS011;32503;47.748;8.960;2023-11-22T07:19:28;1.37;;;1.27;;
3149;SDS011;32503;47.748;8.960;2023-11-22T07:21:55;1.53;;;1.43;;
3149;SDS011;32503;47.748;8.960;2023-11-22T07:24:23;1.60;;;1.50;;
3149;SDS011;32503;47.748;8.960;2023-11-22T07:26:50;1.33;;;1.23;;
3149;SDS011;32503;47.748;8.960;2023-11-22T07:29:18;1.90;;;1.80;;
3149;SDS011;32503;47.748;8.960;2023-11-22T07:31:46;2.20;;;2.10;;
3149;SDS011;32503;47.748;8.960;2023-11-22T07:34:14;2.60;;;2.40;;
3149;SDS011;32503;47.748;8.960;2023-11-22T07:36:43;2.27;;;2.17;;
3149;SDS011;32503;47.748;8.960;2023-11-22T07:39:12;2.70;;;1.87;;
3149;SDS011;32503;47.748;8.960;2023-11-22T07:41:39;2.90;;;2.70;;
3149;SDS011;32503;47.748;8.960;2023-11-22T07:44:06;2.50;;;2.37;;
3149;SDS011;32503;47.748;8.960;2023-11-22T07:46:34;5.47;;;4.97;;
3149;SDS011;32503;47.748;8.960;2023-11-22T07:49:04;8.73;;;4.97;;
3149;SDS011;32503;47.748;8.960;2023-11-22T07:51:32;3.90;;;2.60;;
3149;SDS011;32503;47.748;8.960;2023-11-22T07:53:59;2.10;;;2.00;;
3149;SDS011;32503;47.748;8.960;2023-11-22T07:56:26;2.47;;;2.27;;
3149;SDS011;32503;47.748;8.960;2023-11-22T07:58:54;2.37;;;2.27;;
3149;SDS011;32503;47.748;8.960;2023-11-22T08:01:21;1.50;;;1.40;;
3149;SDS011;32503;47.748;8.960;2023-11-22T08:03:48;9.90;;;7.37;;
3149;SDS011;32503;47.748;8.960;2023-11-22T08:06:16;5.37;;;5.07;;
3149;SDS011;32503;47.748;8.960;2023-11-22T08:08:45;4.07;;;3.77;;
3149;SDS011;32503;47.748;8.960;2023-11-22T08:11:12;3.40;;;3.20;;
3149;SDS011;32503;47.748;8.960;2023-11-22T08:13:41;2.67;;;2.57;;
3149;SDS011;32503;47.748;8.960;2023-11-22T08:16:09;2.77;;;2.67;;
3149;SDS011;32503;47.748;8.960;2023-11-22T08:18:38;2.17;;;2.07;;
3149;SDS011;32503;47.748;8.960;2023-11-22T08:21:05;1.43;;;1.33;;
3149;SDS011;32503;47.748;8.960;2023-11-22T08:23:33;1.40;;;1.30;;
3149;SDS011;32503;47.748;8.960;2023-11-22T08:26:01;1.33;;;1.23;;
3149;SDS011;32503;47.748;8.960;2023-11-22T08:28:29;1.47;;;1.37;;
3149;SDS011;32503;47.748;8.960;2023-11-22T08:30:56;1.67;;;1.50;;
3149;SDS011;32503;47.748;8.960;2023-11-22T08:33:23;1.50;;;1.40;;
3149;SDS011;32503;47.748;8.960;2023-11-22T08:35:50;1.80;;;1.70;;
3149;SDS011;32503;47.748;8.960;2023-11-22T08:38:23;1.17;;;1.07;;
3149;SDS011;32503;47.748;8.960;2023-11-22T08:40:52;1.83;;;1.73;;
3149;SDS011;32503;47.748;8.960;2023-11-22T08:43:21;1.20;;;1.10;;
3149;SDS011;32503;47.748;8.960;2023-11-22T08:45:50;1.07;;;1.00;;
3149;SDS011;32503;47.748;8.960;2023-11-22T08:48:18;3.13;;;1.80;;
3149;SDS011;32503;47.748;8.960;2023-11-22T08:50:45;5.63;;;2.10;;
3149;SDS011;32503;47.748;8.960;2023-11-22T08:53:13;2.63;;;2.43;;
3149;SDS011;32503;47.748;8.960;2023-11-22T08:55:40;2.50;;;2.30;;
3149;SDS011;32503;47.748;8.960;2023-11-22T08:58:08;1.80;;;1.70;;
3149;SDS011;32503;47.748;8.960;2023-11-22T09:00:38;1.43;;;1.33;;
3149;SDS011;32503;47.748;8.960;2023-11-22T09:03:06;1.40;;;1.30;;
3149;SDS011;32503;47.748;8.960;2023-11-22T09:05:33;1.70;;;1.60;;
3149;SDS011;32503;47.748;8.960;2023-11-22T09:08:01;1.43;;;1.33;;
3149;SDS011;32503;47.748;8.960;2023-11-22T09:10:29;1.50;;;1.40;;
3149;SDS011;32503;47.748;8.960;2023-11-22T09:12:56;1.70;;;1.60;;
3149;SDS011;32503;47.748;8.960;2023-11-22T09:15:25;1.40;;;1.30;;
3149;SDS011;32503;47.748;8.960;2023-11-22T09:17:55;2.33;;;1.50;;
3149;SDS011;32503;47.748;8.960;2023-11-22T09:20:23;1.87;;;1.77;;
3149;SDS011;32503;47.748;8.960;2023-11-22T09:22:50;1.63;;;1.53;;
3149;SDS011;32503;47.748;8.960;2023-11-22T09:25:19;1.77;;;1.67;;
3149;SDS011;32503;47.748;8.960;2023-11-22T09:27:49;1.63;;;1.53;;
3149;SDS011;32503;47.748;8.960;2023-11-22T09:30:21;1.30;;;1.20;;
3149;SDS011;32503;47.748;8.960;2023-11-22T09:33:01;1.80;;;1.70;;
3149;SDS011;32503;47.748;8.960;2023-11-22T09:35:30;1.67;;;1.57;;
3149;SDS011;32503;47.748;8.960;2023-11-22T09:37:58;2.43;;;2.27;;
3149;SDS011;32503;47.748;8.960;2023-11-22T09:40:25;1.73;;;1.50;;
3149;SDS011;32503;47.748;8.960;2023-11-22T09:42:54;2.23;;;1.70;;
3149;SDS011;32503;47.748;8.960;2023-11-22T09:45:23;1.67;;;1.57;;
3149;SDS011;32503;47.748;8.960;2023-11-22T09:47:50;1.50;;;1.40;;
3149;SDS011;32503;47.748;8.960;2023-11-22T09:50:22;3.33;;;1.50;;
3149;SDS011;32503;47.748;8.960;2023-11-22T09:53:02;1.60;;;1.50;;
3149;SDS011;32503;47.748;8.960;2023-11-22T09:55:37;1.37;;;1.27;;
3149;SDS011;32503;47.748;8.960;2023-11-22T09:58:04;1.47;;;1.37;;
3149;SDS011;32503;47.748;8.960;2023-11-22T10:00:32;0.93;;;0.93;;
3149;SDS011;32503;47.748;8.960;2023-11-22T10:03:00;1.30;;;1.20;;
3149;SDS011;32503;47.748;8.960;2023-11-22T10:05:28;1.53;;;1.43;;
3149;SDS011;32503;47.748;8.960;2023-11-22T10:07:55;1.90;;;1.80;;
3149;SDS011;32503;47.748;8.960;2023-11-22T10:10:22;1.43;;;1.33;;
3149;SDS011;32503;47.748;8.960;2023-11-22T10:12:53;1.93;;;1.83;;
3149;SDS011;32503;47.748;8.960;2023-11-22T10:15:22;1.97;;;1.87;;
3149;SDS011;32503;47.748;8.960;2023-11-22T10:17:54;1.80;;;1.70;;
3149;SDS011;32503;47.748;8.960;2023-11-22T10:20:22;1.70;;;1.60;;
3149;SDS011;32503;47.748;8.960;2023-11-22T10:22:52;1.90;;;1.80;;
3149;SDS011;32503;47.748;8.960;2023-11-22T10:25:19;1.83;;;1.73;;
3149;SDS011;32503;47.748;8.960;2023-11-22T10:27:48;1.43;;;1.33;;
3149;SDS011;32503;47.748;8.960;2023-11-22T10:30:16;1.73;;;1.63;;
3149;SDS011;32503;47.748;8.960;2023-11-22T10:32:44;2.00;;;1.90;;
3149;SDS011;32503;47.748;8.960;2023-11-22T10:35:11;1.77;;;1.67;;
3149;SDS011;32503;47.748;8.960;2023-11-22T10:37:41;1.60;;;1.50;;
3149;SDS011;32503;47.748;8.960;2023-11-22T10:40:11;1.80;;;1.70;;
3149;SDS011;32503;47.748;8.960;2023-11-22T10:42:40;1.40;;;1.30;;
3149;SDS011;32503;47.748;8.960;2023-11-22T10:45:09;1.37;;;1.27;;
3149;SDS011;32503;47.748;8.960;2023-11-22T10:47:37;2.10;;;1.70;;
3149;SDS011;32503;47.748;8.960;2023-11-22T10:50:07;1.53;;;1.43;;
3149;SDS011;32503;47.748;8.960;2023-11-22T10:52:37;3.47;;;1.90;;
3149;SDS011;32503;47.748;8.960;2023-11-22T10:55:07;1.97;;;1.83;;
3149;SDS011;32503;47.748;8.960;2023-11-22T10:57:39;2.27;;;1.90;;
3149;SDS011;32503;47.748;8.960;2023-11-22T11:00:13;1.53;;;1.43;;
3149;SDS011;32503;47.748;8.960;2023-11-22T11:02:48;1.80;;;1.70;;
3149;SDS011;32503;47.748;8.960;2023-11-22T11:05:27;1.77;;;1.67;;
3149;SDS011;32503;47.748;8.960;2023-11-22T11:07:59;4.40;;;1.47;;
3149;SDS011;32503;47.748;8.960;2023-11-22T11:10:39;1.60;;;1.50;;
3149;SDS011;32503;47.748;8.960;2023-11-22T11:13:07;1.40;;;1.20;;
3149;SDS011;32503;47.748;8.960;2023-11-22T11:15:35;2.23;;;1.57;;
3149;SDS011;32503;47.748;8.960;2023-11-22T11:18:03;1.53;;;1.43;;
3149;SDS011;32503;47.748;8.960;2023-11-22T11:20:32;1.27;;;1.17;;
3149;SDS011;32503;47.748;8.960;2023-11-22T11:23:01;1.67;;;1.57;;
3149;SDS011;32503;47.748;8.960;2023-11-22T11:25:30;1.30;;;1.20;;
3149;SDS011;32503;47.748;8.960;2023-11-22T11:28:01;1.90;;;1.80;;
3149;SDS011;32503;47.748;8.960;2023-11-22T11:33:13;1.80;;;1.70;;
3149;SDS011;32503;47.748;8.960;2023-11-22T11:35:43;1.63;;;1.53;;
3149;SDS011;32503;47.748;8.960;2023-11-22T11:38:12;1.30;;;1.20;;
3149;SDS011;32503;47.748;8.960;2023-11-22T11:40:40;1.40;;;1.30;;
3149;SDS011;32503;47.748;8.960;2023-11-22T11:43:10;2.40;;;1.20;;
3149;SDS011;32503;47.748;8.960;2023-11-22T11:45:38;2.03;;;1.33;;
3149;SDS011;32503;47.748;8.960;2023-11-22T11:48:11;1.30;;;1.20;;
3149;SDS011;32503;47.748;8.960;2023-11-22T11:50:39;1.30;;;1.20;;
3149;SDS011;32503;47.748;8.960;2023-11-22T11:53:07;1.50;;;1.40;;
3149;SDS011;32503;47.748;8.960;2023-11-22T11:55:37;1.57;;;1.47;;
3149;SDS011;32503;47.748;8.960;2023-11-22T11:58:04;1.30;;;1.20;;
3149;SDS011;32503;47.748;8.960;2023-11-22T12:00:35;1.67;;;1.57;;
3149;SDS011;32503;47.748;8.960;2023-11-22T12:03:05;1.50;;;1.40;;
3149;SDS011;32503;47.748;8.960;2023-11-22T12:05:34;1.43;;;1.33;;
3149;SDS011;32503;47.748;8.960;2023-11-22T12:08:02;1.57;;;1.47;;
3149;SDS011;32503;47.748;8.960;2023-11-22T12:10:29;1.70;;;1.60;;
3149;SDS011;32503;47.748;8.960;2023-11-22T12:12:56;2.07;;;1.97;;
3149;SDS011;32503;47.748;8.960;2023-11-22T12:15:24;1.43;;;1.33;;
3149;SDS011;32503;47.748;8.960;2023-11-22T12:17:52;2.07;;;1.97;;
3149;SDS011;32503;47.748;8.960;2023-11-22T12:20:22;1.80;;;1.70;;
3149;SDS011;32503;47.748;8.960;2023-11-22T12:22:51;1.93;;;1.83;;
3149;SDS011;32503;47.748;8.960;2023-11-22T12:25:19;1.70;;;1.60;;
3149;SDS011;32503;47.748;8.960;2023-11-22T12:27:46;2.10;;;2.00;;
3149;SDS011;32503;47.748;8.960;2023-11-22T12:30:29;2.20;;;2.10;;
3149;SDS011;32503;47.748;8.960;2023-11-22T12:33:02;1.90;;;1.80;;
3149;SDS011;32503;47.748;8.960;2023-11-22T12:35:32;1.87;;;1.77;;
3149;SDS011;32503;47.748;8.960;2023-11-22T12:38:00;1.90;;;1.77;;
3149;SDS011;32503;47.748;8.960;2023-11-22T12:40:28;2.00;;;1.77;;
3149;SDS011;32503;47.748;8.960;2023-11-22T12:42:58;2.00;;;1.90;;
3149;SDS011;32503;47.748;8.960;2023-11-22T12:45:27;2.13;;;2.00;;
3149;SDS011;32503;47.748;8.960;2023-11-22T12:47:55;2.50;;;2.30;;
3149;SDS011;32503;47.748;8.960;2023-11-22T12:50:33;4.27;;;3.23;;
3149;SDS011;32503;47.748;8.960;2023-11-22T12:53:10;2.47;;;2.30;;
3149;SDS011;32503;47.748;8.960;2023-11-22T12:55:41;2.93;;;2.73;;
3149;SDS011;32503;47.748;8.960;2023-11-22T12:58:10;3.13;;;2.80;;
3149;SDS011;32503;47.748;8.960;2023-11-22T13:00:37;2.97;;;2.70;;
3149;SDS011;32503;47.748;8.960;2023-11-22T13:03:05;3.07;;;2.90;;
3149;SDS011;32503;47.748;8.960;2023-11-22T13:05:35;3.20;;;3.00;;
3149;SDS011;32503;47.748;8.960;2023-11-22T13:08:02;3.57;;;3.27;;
3149;SDS011;32503;47.748;8.960;2023-11-22T13:10:30;2.90;;;2.70;;
3149;SDS011;32503;47.748;8.960;2023-11-22T13:12:57;3.60;;;3.40;;
3149;SDS011;32503;47.748;8.960;2023-11-22T13:15:24;3.07;;;2.90;;
3149;SDS011;32503;47.748;8.960;2023-11-22T13:17:52;3.60;;;3.30;;
3149;SDS011;32503;47.748;8.960;2023-11-22T13:20:20;3.73;;;3.43;;
3149;SDS011;32503;47.748;8.960;2023-11-22T13:22:52;3.60;;;3.30;;
3149;SDS011;32503;47.748;8.960;2023-11-22T13:25:19;3.33;;;3.13;;
3149;SDS011;32503;47.748;8.960;2023-11-22T13:27:48;3.40;;;3.20;;
3149;SDS011;32503;47.748;8.960;2023-11-22T13:30:17;3.60;;;3.40;;
3149;SDS011;32503;47.748;8.960;2023-11-22T13:32:48;3.80;;;3.50;;
3149;SDS011;32503;47.748;8.960;2023-11-22T13:35:15;4.00;;;3.70;;
3149;SDS011;32503;47.748;8.960;2023-11-22T13:37:42;3.80;;;3.47;;
3149;SDS011;32503;47.748;8.960;2023-11-22T13:40:13;4.63;;;4.23;;
3149;SDS011;32503;47.748;8.960;2023-11-22T13:42:42;3.93;;;3.63;;
3149;SDS011;32503;47.748;8.960;2023-11-22T13:45:10;5.53;;;4.63;;
3149;SDS011;32503;47.748;8.960;2023-11-22T13:47:41;4.87;;;4.50;;
3149;SDS011;32503;47.748;8.960;2023-11-22T13:50:10;4.40;;;4.10;;
3149;SDS011;32503;47.748;8.960;2023-11-22T13:52:39;5.23;;;4.70;;
3149;SDS011;32503;47.748;8.960;2023-11-22T13:55:07;5.27;;;4.47;;
3149;SDS011;32503;47.748;8.960;2023-11-22T13:57:37;4.20;;;3.90;;
3149;SDS011;32503;47.748;8.960;2023-11-22T14:00:06;6.67;;;5.40;;
3149;SDS011;32503;47.748;8.960;2023-11-22T14:02:37;5.90;;;5.20;;
3149;SDS011;32503;47.748;8.960;2023-11-22T14:05:06;6.37;;;4.87;;
3149;SDS011;32503;47.748;8.960;2023-11-22T14:07:34;5.47;;;4.97;;
3149;SDS011;32503;47.748;8.960;2023-11-22T14:10:02;5.70;;;5.20;;
3149;SDS011;32503;47.748;8.960;2023-11-22T14:12:31;5.70;;;4.80;;
3149;SDS011;32503;47.748;8.960;2023-11-22T14:15:00;4.97;;;4.47;;
3149;SDS011;32503;47.748;8.960;2023-11-22T14:17:29;7.43;;;5.43;;
3149;SDS011;32503;47.748;8.960;2023-11-22T14:19:58;5.00;;;4.50;;
3149;SDS011;32503;47.748;8.960;2023-11-22T14:22:30;5.17;;;4.67;;
3149;SDS011;32503;47.748;8.960;2023-11-22T14:24:57;27.97;;;14.23;;
3149;SDS011;32503;47.748;8.960;2023-11-22T14:27:24;8.33;;;7.40;;
3149;SDS011;32503;47.748;8.960;2023-11-22T14:29:55;5.80;;;4.27;;
3149;SDS011;32503;47.748;8.960;2023-11-22T14:32:24;15.87;;;8.57;;
3149;SDS011;32503;47.748;8.960;2023-11-22T14:34:52;5.80;;;5.30;;
3149;SDS011;32503;47.748;8.960;2023-11-22T14:37:20;6.10;;;5.50;;
3149;SDS011;32503;47.748;8.960;2023-11-22T14:39:47;5.63;;;4.97;;
3149;SDS011;32503;47.748;8.960;2023-11-22T14:42:14;4.70;;;4.20;;
3149;SDS011;32503;47.748;8.960;2023-11-22T14:44:42;4.80;;;4.30;;
3149;SDS011;32503;47.748;8.960;2023-11-22T14:47:09;6.80;;;6.20;;
3149;SDS011;32503;47.748;8.960;2023-11-22T14:49:43;6.20;;;5.60;;
3149;SDS011;32503;47.748;8.960;2023-11-22T14:52:10;3.97;;;3.60;;
3149;SDS011;32503;47.748;8.960;2023-11-22T14:54:37;5.97;;;5.37;;
3149;SDS011;32503;47.748;8.960;2023-11-22T14:57:04;5.37;;;4.90;;
3149;SDS011;32503;47.748;8.960;2023-11-22T14:59:32;4.57;;;4.17;;
3149;SDS011;32503;47.748;8.960;2023-11-22T15:01:59;3.77;;;3.47;;
3149;SDS011;32503;47.748;8.960;2023-11-22T15:04:29;4.77;;;4.37;;
3149;SDS011;32503;47.748;8.960;2023-11-22T15:06:59;4.50;;;4.00;;
3149;SDS011;32503;47.748;8.960;2023-11-22T15:09:26;6.50;;;5.80;;